Time;durP1;ratioP1;P1;durP2;ratioP2;P2;SDS_P1;SDS_P2;PMS_P1;PMS_P2;Temp;Humidity;BMP_temperature;BMP_pressure;BME280_temperature;BME280_humidity;BME280_pressure;Samples;Min_cycle;Max_cycle;Signal;HPM_P1;HPM_P2
2022/08/09 00:00:20;;;;;;;1.80;1.70;;;22.50;56.50;;;23.33;39.02;101202.50;4971797;28;20673;-68
2022/08/09 00:02:49;;;;;;;3.83;1.67;;;22.50;56.60;;;23.20;39.46;101205.72;4973065;28;20620;-68
2022/08/09 00:05:19;;;;;;;1.90;1.80;;;22.40;56.70;;;23.12;39.72;101205.78;4972771;28;20634;-69
2022/08/09 00:08:09;;;;;;;2.07;1.97;;;22.30;56.90;;;23.26;39.42;101196.19;4938672;28;20663;-68
2022/08/09 00:10:39;;;;;;;1.90;1.80;;;22.30;56.90;;;23.23;39.41;101201.88;4965028;28;20627;-68
2022/08/09 00:13:08;;;;;;;2.13;1.93;;;22.30;56.90;;;23.21;39.39;101198.56;4972434;28;20662;-68
2022/08/09 00:15:44;;;;;;;2.13;2.03;;;22.30;56.90;;;23.13;39.57;101202.94;4972422;28;20710;-69
2022/08/09 00:18:32;;;;;;;1.80;1.80;;;22.30;57.00;;;23.26;39.50;101202.34;4970942;28;20754;-68
2022/08/09 00:21:06;;;;;;;4.57;2.20;;;22.30;57.10;;;23.23;39.50;101202.72;4955419;28;21051;-70
2022/08/09 00:23:36;;;;;;;2.00;1.80;;;22.30;57.20;;;23.19;39.67;101205.91;4971824;28;20615;-68
2022/08/09 00:26:24;;;;;;;1.77;1.67;;;22.30;57.30;;;22.96;40.37;101205.88;4972779;28;20645;-68
2022/08/09 00:29:00;;;;;;;1.93;1.83;;;22.10;57.50;;;22.96;40.07;101200.56;4972137;28;20643;-68
2022/08/09 00:31:28;;;;;;;2.00;1.90;;;22.10;57.60;;;22.99;40.12;101201.06;4961333;28;20699;-68
2022/08/09 00:34:15;;;;;;;11.20;2.00;;;22.10;57.70;;;23.00;40.20;101205.34;4952098;29;20613;-68
2022/08/09 00:36:47;;;;;;;1.80;1.80;;;22.10;57.80;;;23.01;40.13;101196.38;4965520;28;20671;-68
2022/08/09 00:39:15;;;;;;;2.07;1.97;;;22.10;57.80;;;22.98;40.29;101195.88;4954933;28;21201;-68
2022/08/09 00:42:02;;;;;;;1.80;1.70;;;22.10;57.80;;;22.85;40.52;101185.03;4971807;28;21234;-68
2022/08/09 00:44:49;;;;;;;1.90;1.90;;;22.00;58.00;;;22.78;40.67;101194.72;4972797;28;20638;-68
2022/08/09 00:47:20;;;;;;;8.17;2.10;;;21.90;58.20;;;22.78;40.62;101184.91;4972331;28;20646;-69
2022/08/09 00:49:51;;;;;;;2.10;2.00;;;21.90;58.20;;;22.78;40.53;101192.88;4971328;28;20643;-68
2022/08/09 00:52:24;;;;;;;1.80;1.70;;;21.90;58.30;;;22.76;40.78;101194.88;4971859;28;20626;-70
2022/08/09 00:55:00;;;;;;;1.83;1.73;;;21.90;58.50;;;22.77;40.73;101193.88;4970715;28;20638;-68
2022/08/09 00:57:31;;;;;;;1.80;1.70;;;21.90;58.50;;;22.84;40.84;101200.16;4972211;28;20678;-68
2022/08/09 01:00:09;;;;;;;2.00;1.90;;;21.90;58.50;;;22.82;40.84;101196.84;4955162;28;20663;-68
2022/08/09 01:03:04;;;;;;;2.20;2.00;;;21.90;58.50;;;22.85;40.81;101196.47;4972047;28;21005;-68
2022/08/09 01:05:56;;;;;;;1.90;1.80;;;21.90;58.50;;;22.88;40.68;101196.13;4970558;28;20614;-68
2022/08/09 01:09:15;;;;;;;1.93;1.83;;;22.00;58.60;;;22.76;41.08;101189.56;4953001;28;21125;-68
2022/08/09 01:12:00;;;;;;;1.60;1.60;;;21.90;58.70;;;22.82;41.19;101191.53;4935435;28;20658;-68
2022/08/09 01:14:53;;;;;;;1.80;1.80;;;21.90;58.90;;;22.76;41.20;101197.56;4970884;28;20626;-68
2022/08/09 01:17:46;;;;;;;2.00;1.90;;;21.90;58.90;;;22.72;41.38;101204.19;4953495;28;20652;-68
2022/08/09 01:20:34;;;;;;;1.57;1.53;;;21.80;59.00;;;22.62;41.31;101192.13;4954212;28;20660;-68
2022/08/09 01:23:24;;;;;;;1.97;1.87;;;21.80;59.10;;;22.69;41.45;101199.25;4953778;28;20635;-68
2022/08/09 01:26:54;;;;;;;2.23;2.07;;;21.80;59.20;;;22.52;41.82;101202.13;4971166;28;20639;-69
2022/08/09 01:29:32;;;;;;;1.93;1.87;;;21.70;59.40;;;22.63;41.71;101199.13;4970442;28;20639;-69
2022/08/09 01:32:22;;;;;;;2.20;2.10;;;21.70;59.60;;;22.62;41.66;101206.25;4956437;28;20616;-69
2022/08/09 01:35:38;;;;;;;2.13;1.87;;;21.70;59.70;;;22.50;42.21;101209.44;4976649;28;20607;-68
2022/08/09 01:38:26;;;;;;;2.03;1.73;;;21.60;59.90;;;22.63;41.85;101204.44;4958788;28;20700;-68
2022/08/09 01:41:05;;;;;;;2.20;2.10;;;21.70;59.90;;;22.66;41.81;101204.09;4958061;28;20659;-68
2022/08/09 01:43:39;;;;;;;2.20;2.10;;;21.70;60.00;;;22.62;42.26;101208.91;4957229;28;20734;-68
2022/08/09 01:46:27;;;;;;;2.20;2.10;;;21.70;60.20;;;22.54;42.28;101208.94;4959751;28;20674;-68
2022/08/09 01:49:08;;;;;;;2.60;2.40;;;21.70;61.10;;;22.57;42.38;101208.59;4973569;28;20991;-68
2022/08/09 01:51:41;;;;;;;1.90;1.90;;;21.70;60.50;;;22.66;42.44;101204.91;4970467;28;20701;-68
2022/08/09 01:54:13;;;;;;;2.10;1.90;;;21.70;60.50;;;22.63;42.22;101191.13;4956284;28;20678;-68
2022/08/09 01:56:44;;;;;;;3.30;2.00;;;21.70;60.60;;;22.67;42.64;101208.41;4974197;28;21047;-68
2022/08/09 01:59:20;;;;;;;2.27;2.17;;;21.70;60.60;;;22.51;42.88;101195.97;4956010;29;20702;-68
2022/08/09 02:01:53;;;;;;;2.67;2.30;;;21.60;60.90;;;22.49;42.99;101205.94;4939113;29;21043;-68
2022/08/09 02:04:28;;;;;;;4.23;2.00;;;21.60;61.10;;;22.57;42.62;101203.28;4955570;29;21307;-68
2022/08/09 02:07:07;;;;;;;2.10;1.90;;;21.60;61.10;;;22.48;42.83;101206.97;4964792;28;21262;-68
2022/08/09 02:10:03;;;;;;;2.50;2.40;;;21.60;61.10;;;22.50;42.99;101209.44;4975062;28;20624;-68
2022/08/09 02:12:33;;;;;;;2.60;2.33;;;21.50;61.20;;;22.42;43.06;101218.31;4952671;28;20640;-68
2022/08/09 02:15:03;;;;;;;2.60;2.50;;;21.50;61.30;;;22.32;43.37;101218.50;4971359;28;20631;-68
2022/08/09 02:17:35;;;;;;;8.50;2.33;;;21.40;61.40;;;22.34;43.29;101218.31;4941512;28;20647;-68
2022/08/09 02:20:24;;;;;;;2.30;2.20;;;21.40;61.70;;;22.18;43.73;101227.19;4960323;28;21327;-68
2022/08/09 02:23:15;;;;;;;2.03;1.93;;;21.30;61.90;;;22.19;43.58;101233.34;4972409;28;21227;-68
2022/08/09 02:25:47;;;;;;;2.80;2.13;;;21.30;62.00;;;22.27;43.66;101235.97;4957406;28;20993;-68
2022/08/09 02:28:43;;;;;;;2.50;2.23;;;21.30;62.10;;;22.31;43.52;101238.13;4958828;28;20705;-68
2022/08/09 02:31:21;;;;;;;3.23;2.40;;;21.30;62.00;;;22.33;43.27;101243.25;4973157;28;20651;-68
2022/08/09 02:33:53;;;;;;;2.20;2.10;;;21.30;62.00;;;22.11;43.80;101244.81;4956693;28;20678;-68
2022/08/09 02:36:40;;;;;;;2.50;2.30;;;21.30;62.30;;;22.09;43.84;101238.84;4955399;28;20742;-69
2022/08/09 02:39:24;;;;;;;3.13;2.10;;;21.20;62.40;;;22.10;44.01;101243.16;4954758;28;20639;-69
2022/08/09 02:42:18;;;;;;;2.50;2.30;;;21.20;62.60;;;22.01;44.28;101243.34;4960495;28;20631;-68
2022/08/09 02:44:58;;;;;;;2.87;2.77;;;21.10;62.90;;;22.00;44.49;101239.84;4957309;28;20619;-68
2022/08/09 02:47:28;;;;;;;3.00;2.80;;;21.10;63.00;;;22.02;44.38;101237.03;4956519;28;20642;-68
2022/08/09 02:50:22;;;;;;;2.40;2.30;;;21.10;63.10;;;22.06;44.51;101241.81;4957557;28;21011;-68
2022/08/09 02:53:13;;;;;;;3.57;2.63;;;21.10;63.20;;;21.96;44.56;101235.03;4972250;28;21268;-68
2022/08/09 02:55:57;;;;;;;3.70;2.67;;;21.10;63.30;;;21.96;44.79;101243.00;4973151;28;20639;-68
2022/08/09 02:58:29;;;;;;;2.30;2.20;;;21.10;63.40;;;21.90;44.57;101233.06;4955969;28;20661;-68
2022/08/09 03:01:06;;;;;;;2.63;2.43;;;21.10;63.50;;;21.94;44.48;101231.72;4957122;28;20663;-68
2022/08/09 03:03:36;;;;;;;4.73;2.50;;;21.10;63.40;;;21.94;44.54;101226.41;4955406;28;20643;-69
2022/08/09 03:06:24;;;;;;;2.90;2.70;;;21.00;63.60;;;21.92;44.87;101229.25;4959850;28;20608;-69
2022/08/09 03:08:54;;;;;;;2.70;2.60;;;21.00;63.70;;;21.95;44.66;101228.06;4972951;28;20690;-69
2022/08/09 03:11:24;;;;;;;2.30;2.20;;;21.00;63.80;;;21.86;45.04;101226.44;4973054;28;20639;-68
2022/08/09 03:14:11;;;;;;;3.10;2.90;;;21.00;63.90;;;21.76;45.33;101228.41;4967085;28;20652;-68
2022/08/09 03:16:39;;;;;;;6.10;2.70;;;20.90;64.40;;;21.60;45.93;101224.78;4971807;28;20658;-68
2022/08/09 03:19:16;;;;;;;2.60;2.40;;;20.80;64.70;;;21.63;45.76;101227.09;4941979;28;20718;-68
2022/08/09 03:22:05;;;;;;;3.33;2.40;;;20.80;64.80;;;21.54;46.26;101221.94;4957739;28;20655;-68
2022/08/09 03:24:51;;;;;;;2.90;2.70;;;20.70;64.90;;;21.64;45.78;101220.78;4959439;28;20620;-68
2022/08/09 03:27:34;;;;;;;2.97;2.77;;;20.80;65.00;;;21.61;45.90;101222.97;4972071;28;21016;-68
2022/08/09 03:30:15;;;;;;;2.73;2.40;;;20.80;64.90;;;21.55;46.41;101226.28;4973703;28;20635;-67
2022/08/09 03:33:03;;;;;;;2.43;2.33;;;20.80;65.30;;;21.56;46.21;101226.09;4957305;28;20639;-68
2022/08/09 03:35:40;;;;;;;2.93;2.63;;;20.70;65.40;;;21.38;46.32;101222.78;4972396;28;20722;-68
2022/08/09 03:38:27;;;;;;;2.30;2.20;;;20.60;65.60;;;21.47;46.25;101229.75;4970923;28;20667;-69
2022/08/09 03:40:54;;;;;;;4.90;2.67;;;20.60;65.70;;;21.42;46.34;101233.91;4972700;28;20666;-68
2022/08/09 03:43:21;;;;;;;2.87;2.47;;;20.50;65.80;;;21.44;46.48;101227.44;4972998;28;21242;-68
2022/08/09 03:45:48;;;;;;;2.80;2.70;;;20.60;66.00;;;21.40;46.54;101236.72;4971957;28;20657;-68
2022/08/09 03:48:36;;;;;;;3.27;3.07;;;20.50;66.10;;;21.25;46.94;101241.00;4971013;28;20656;-69
2022/08/09 03:51:19;;;;;;;2.50;2.37;;;20.50;66.20;;;21.34;46.41;101241.84;4955560;28;20647;-68
2022/08/09 03:54:09;;;;;;;3.00;2.80;;;20.50;66.20;;;21.24;46.79;101247.31;4953534;28;20617;-68
2022/08/09 03:56:39;;;;;;;4.33;2.43;;;20.40;66.30;;;21.25;47.06;101246.31;4970394;28;20631;-68
2022/08/09 03:59:12;;;;;;;3.10;2.90;;;20.40;66.50;;;21.13;47.07;101257.41;4955881;28;21214;-68
2022/08/09 04:01:55;;;;;;;2.60;2.40;;;20.30;66.60;;;21.11;47.07;101254.09;4972554;28;20746;-68
2022/08/09 04:04:27;;;;;;;2.93;2.73;;;20.30;66.80;;;21.14;47.31;101257.28;4971746;28;20632;-68
2022/08/09 04:07:05;;;;;;;2.90;2.70;;;20.20;67.00;;;21.14;47.17;101251.97;4956679;28;20655;-67
2022/08/09 04:09:32;;;;;;;2.90;2.47;;;20.20;66.90;;;20.97;47.59;101258.19;4973042;28;20633;-69
2022/08/09 04:12:15;;;;;;;2.97;2.60;;;20.20;66.90;;;20.95;47.40;101259.34;4956687;28;21023;-68
2022/08/09 04:14:57;;;;;;;3.00;2.73;;;20.10;67.20;;;20.96;47.44;101261.00;4973156;28;20623;-68
2022/08/09 04:17:39;;;;;;;3.97;2.70;;;20.20;67.20;;;21.05;47.27;101268.84;4972584;28;21050;-68
2022/08/09 04:20:11;;;;;;;3.20;2.90;;;20.20;67.10;;;21.15;46.82;101261.56;4955996;28;21074;-68
2022/08/09 04:22:40;;;;;;;3.70;2.90;;;20.30;66.90;;;21.12;46.90;101264.56;4971277;28;20644;-68
2022/08/09 04:25:12;;;;;;;2.57;2.37;;;20.30;66.70;;;21.16;46.64;101267.72;4971594;28;20635;-68
2022/08/09 04:27:42;;;;;;;5.63;2.70;;;20.30;66.60;;;21.17;46.49;101264.88;4969840;28;20751;-68
2022/08/09 04:30:18;;;;;;;3.10;2.63;;;20.40;66.60;;;21.30;46.17;101267.91;4965396;28;20640;-68
2022/08/09 04:32:50;;;;;;;4.07;2.80;;;20.50;66.30;;;21.46;45.75;101278.56;4971369;28;20620;-68
2022/08/09 04:35:17;;;;;;;3.83;2.50;;;20.60;66.20;;;21.57;45.54;101278.19;4972108;28;21217;-69
2022/08/09 04:37:48;;;;;;;3.03;2.83;;;20.70;65.90;;;21.60;45.88;101279.69;4955013;28;20648;-68
2022/08/09 04:40:15;;;;;;;2.70;2.60;;;20.70;65.80;;;21.71;45.56;101284.69;4970266;28;21047;-68
2022/08/09 04:42:54;;;;;;;3.07;2.87;;;20.80;65.70;;;21.79;45.41;101284.69;4971416;28;20635;-68
2022/08/09 04:45:23;;;;;;;3.07;2.87;;;20.90;65.70;;;21.79;45.42;101284.69;4970878;28;20651;-68
2022/08/09 04:47:58;;;;;;;3.90;2.90;;;20.90;65.40;;;21.94;45.10;101292.84;4956928;28;20660;-68
2022/08/09 04:50:33;;;;;;;2.53;2.33;;;21.00;65.50;;;22.15;44.52;101295.78;4955257;28;20631;-69
2022/08/09 04:53:06;;;;;;;2.50;2.40;;;21.20;65.10;;;22.26;44.33;101296.28;4955493;28;21011;-69
2022/08/09 04:55:43;;;;;;;2.80;2.60;;;21.30;64.80;;;22.37;44.31;101297.75;4938608;28;20838;-68
2022/08/09 04:58:26;;;;;;;3.47;2.80;;;21.40;64.70;;;22.63;43.65;101298.38;4972190;28;20651;-68
2022/08/09 05:00:55;;;;;;;2.90;2.80;;;21.60;64.30;;;22.71;43.62;101308.97;4968422;28;20730;-68
2022/08/09 05:03:23;;;;;;;3.07;2.57;;;21.70;64.10;;;22.90;43.27;101308.56;4971147;28;20977;-69
2022/08/09 05:06:11;;;;;;;6.03;2.93;;;21.90;63.70;;;23.08;42.83;101310.97;4961050;28;20631;-68
2022/08/09 05:08:55;;;;;;;3.70;2.60;;;22.10;63.20;;;23.23;42.72;101314.53;4970016;28;20615;-68
2022/08/09 05:11:28;;;;;;;2.83;2.63;;;22.20;62.90;;;23.39;42.37;101319.78;4971162;28;20790;-68
2022/08/09 05:13:58;;;;;;;2.90;2.70;;;22.40;62.50;;;23.52;42.08;101330.69;4970608;28;21021;-70
2022/08/09 05:16:25;;;;;;;3.00;2.57;;;22.50;62.30;;;23.77;41.44;101329.47;4970807;28;20616;-68
2022/08/09 05:18:58;;;;;;;3.30;2.53;;;22.70;61.90;;;23.78;41.66;101327.66;4970768;28;21017;-68
2022/08/09 05:21:27;;;;;;;3.23;3.00;;;22.80;61.50;;;23.88;41.37;101320.22;4970364;28;20664;-68
2022/08/09 05:24:12;;;;;;;2.97;2.87;;;22.90;61.20;;;24.17;40.59;101324.84;4963544;28;20678;-70
2022/08/09 05:26:40;;;;;;;6.43;3.07;;;23.10;60.80;;;24.27;40.66;101326.25;4970381;28;20614;-68
2022/08/09 05:29:20;;;;;;;2.77;2.67;;;23.30;60.50;;;24.37;40.15;101323.28;4971167;28;20640;-69
2022/08/09 05:31:52;;;;;;;3.70;2.70;;;23.40;60.20;;;24.42;39.82;101329.75;4954094;28;20694;-68
2022/08/09 05:34:30;;;;;;;4.47;3.00;;;23.50;60.00;;;24.74;39.50;101328.56;4956710;28;20627;-68
2022/08/09 05:37:04;;;;;;;2.97;2.77;;;23.70;59.60;;;24.91;39.52;101324.69;4971172;28;21035;-68
2022/08/09 05:39:39;;;;;;;4.20;3.80;;;23.90;59.40;;;25.17;38.55;101329.53;4954676;28;21022;-69
2022/08/09 05:42:12;;;;;;;4.03;2.80;;;24.10;59.00;;;25.44;38.46;101334.16;4971263;28;20678;-69
2022/08/09 05:44:58;;;;;;;3.90;2.80;;;24.40;58.50;;;25.75;37.62;101331.16;4970855;28;20612;-68
2022/08/09 05:47:26;;;;;;;3.73;2.63;;;24.70;58.10;;;26.30;37.06;101351.81;4970695;28;20637;-68
2022/08/09 05:49:59;;;;;;;3.10;2.90;;;25.00;57.40;;;26.62;35.80;101351.19;4970340;28;20654;-68
2022/08/09 05:52:46;;;;;;;2.50;2.40;;;25.30;56.40;;;26.94;35.69;101352.41;4971615;28;20615;-68
2022/08/09 05:55:21;;;;;;;2.80;2.70;;;25.50;56.40;;;27.20;34.86;101357.84;4970297;28;20705;-68
2022/08/09 05:57:50;;;;;;;2.97;2.33;;;25.80;55.80;;;27.77;34.04;101352.84;4953647;28;20698;-68
2022/08/09 06:00:30;;;;;;;5.63;2.50;;;26.20;55.10;;;28.30;33.00;101356.41;4969982;28;21065;-68
2022/08/09 06:03:01;;;;;;;2.87;2.67;;;26.70;54.50;;;28.56;32.54;101356.34;4971313;28;20663;-68
2022/08/09 06:05:32;;;;;;;4.60;2.50;;;26.90;53.50;;;28.96;31.55;101357.09;4953180;28;20719;-70
2022/08/09 06:08:19;;;;;;;5.00;3.13;;;27.20;53.30;;;29.39;30.92;101362.69;4970728;28;20639;-68
2022/08/09 06:10:55;;;;;;;2.67;2.57;;;27.50;52.70;;;29.88;30.75;101368.16;4971104;28;20627;-68
2022/08/09 06:13:25;;;;;;;4.40;2.73;;;28.00;52.30;;;30.19;29.98;101365.44;4947645;28;20652;-68
2022/08/09 06:15:54;;;;;;;2.67;2.47;;;28.40;51.60;;;31.12;29.05;101382.28;4954657;28;20686;-69
2022/08/09 06:18:22;;;;;;;2.20;2.10;;;28.90;51.20;;;31.66;27.80;101384.06;4971270;28;21230;-69
2022/08/09 06:20:53;;;;;;;2.60;2.40;;;29.30;50.10;;;32.08;27.45;101372.19;4973480;28;20631;-66
2022/08/09 06:23:25;;;;;;;3.00;2.23;;;29.60;49.50;;;32.85;26.54;101373.72;4975209;28;20622;-68
2022/08/09 06:26:17;;;;;;;2.80;2.70;;;30.00;49.30;;;32.93;26.22;101384.13;4971986;28;20616;-66
2022/08/09 06:28:53;;;;;;;3.47;2.67;;;30.30;48.50;;;32.84;26.16;101383.69;4956285;28;20679;-71
2022/08/09 06:31:28;;;;;;;2.63;2.43;;;30.20;48.70;;;34.15;25.13;101386.19;4957696;28;20627;-67
2022/08/09 06:33:57;;;;;;;5.97;2.60;;;30.70;48.40;;;34.93;24.04;101388.66;4965399;28;20675;-67
2022/08/09 06:36:24;;;;;;;9.70;2.77;;;31.30;47.70;;;34.96;23.20;101390.88;4972687;28;20628;-67
2022/08/09 06:38:56;;;;;;;3.90;2.77;;;31.50;47.00;;;35.95;22.25;101396.84;4956769;28;20642;-68
2022/08/09 06:41:23;;;;;;;3.50;2.17;;;32.20;46.70;;;36.48;21.74;101394.00;4974022;28;20654;-67
2022/08/09 06:44:13;;;;;;;3.57;2.37;;;32.50;46.10;;;37.74;20.94;101391.72;4959448;28;20623;-66
2022/08/09 06:46:44;;;;;;;2.67;2.57;;;33.00;45.70;;;39.16;19.83;101406.78;4972762;28;20646;-67
2022/08/09 06:49:11;;;;;;;3.87;2.33;;;33.90;45.30;;;39.45;19.50;101406.84;4968712;28;21282;-68
2022/08/09 06:51:48;;;;;;;2.97;2.77;;;34.50;44.50;;;39.25;18.84;101404.28;4967664;28;21050;-68
2022/08/09 06:54:17;;;;;;;2.40;2.30;;;35.00;43.50;;;39.60;19.11;101405.97;4958793;28;21195;-68
2022/08/09 06:56:46;;;;;;;4.07;2.50;;;35.30;43.30;;;40.67;18.10;101404.72;4973070;28;21359;-67
2022/08/09 06:59:13;;;;;;;2.90;2.27;;;35.80;42.90;;;41.68;17.56;101413.22;4973575;28;20638;-68
2022/08/09 07:01:59;;;;;;;3.60;3.30;;;36.50;42.30;;;41.81;16.81;101405.38;4973048;28;20654;-67
2022/08/09 07:04:31;;;;;;;3.43;2.70;;;37.00;41.60;;;42.71;16.37;101422.91;4972856;28;20639;-69
2022/08/09 07:06:58;;;;;;;3.13;2.83;;;37.30;41.50;;;43.34;15.98;101411.19;4972421;28;20674;-67
2022/08/09 07:09:27;;;;;;;4.17;2.50;;;38.00;40.70;;;43.90;15.88;101423.25;4973875;28;20615;-67
2022/08/09 07:12:15;;;;;;;2.53;2.43;;;38.40;40.30;;;44.48;14.81;101427.81;4971919;28;20658;-67
2022/08/09 07:14:45;;;;;;;2.20;2.10;;;38.80;40.50;;;44.34;14.82;101418.84;4968071;28;20640;-67
2022/08/09 07:17:18;;;;;;;3.60;2.40;;;38.60;39.70;;;44.79;14.72;101412.06;4963911;28;20758;-68
2022/08/09 07:19:48;;;;;;;3.20;2.50;;;38.90;39.80;;;45.12;14.47;101418.78;4974948;28;20634;-67
2022/08/09 07:22:24;;;;;;;5.83;2.50;;;39.20;39.50;;;45.33;14.23;101417.03;4972998;28;20667;-70
2022/08/09 07:25:11;;;;;;;2.40;2.20;;;39.50;39.30;;;45.76;13.89;101424.50;4973123;28;21315;-69
2022/08/09 07:27:42;;;;;;;2.43;2.33;;;39.80;38.80;;;46.06;13.51;101417.97;4971652;28;20718;-69
2022/08/09 07:30:21;;;;;;;3.37;2.30;;;40.00;38.60;;;45.63;13.89;101414.44;4971657;28;21273;-69
2022/08/09 07:32:51;;;;;;;2.20;2.10;;;39.80;38.30;;;45.77;13.89;101420.59;4955872;28;21027;-68
2022/08/09 07:35:21;;;;;;;6.40;2.50;;;39.80;38.50;;;44.40;14.29;101412.88;4972125;28;20698;-68
2022/08/09 07:37:49;;;;;;;6.07;2.60;;;38.90;38.20;;;45.09;14.03;101416.66;4971627;28;21026;-68
2022/08/09 07:40:18;;;;;;;4.30;2.57;;;39.10;38.90;;;44.27;14.59;101424.78;4972316;28;21219;-68
2022/08/09 07:42:59;;;;;;;2.43;2.33;;;38.90;38.20;;;45.11;13.92;101419.91;4972837;28;20753;-68
2022/08/09 07:45:29;;;;;;;2.40;2.20;;;39.10;38.70;;;45.31;13.92;101411.03;4971837;28;20631;-68
2022/08/09 07:48:06;;;;;;;3.27;2.97;;;39.30;38.20;;;45.94;13.25;101420.59;4973776;28;20838;-68
2022/08/09 07:50:34;;;;;;;3.80;2.60;;;39.80;38.10;;;45.87;13.86;101423.00;4971788;28;20639;-68
2022/08/09 07:53:03;;;;;;;3.43;2.40;;;40.10;37.90;;;45.19;14.40;101416.41;4973018;28;20631;-69
2022/08/09 07:55:31;;;;;;;2.50;2.33;;;40.00;37.90;;;44.76;14.02;101420.94;4973579;28;20623;-68
2022/08/09 07:58:18;;;;;;;2.47;2.27;;;40.00;37.80;;;46.04;14.21;101423.81;4972891;28;20666;-67
2022/08/09 08:00:47;;;;;;;3.07;2.97;;;40.00;38.10;;;46.34;12.99;101410.91;4972413;28;20620;-68
2022/08/09 08:03:24;;;;;;;4.97;2.70;;;40.00;37.70;;;45.78;13.93;101411.19;4970658;28;20663;-68
2022/08/09 08:05:52;;;;;;;2.53;2.27;;;39.80;37.80;;;45.62;14.00;101413.63;4954014;28;20644;-69
2022/08/09 08:08:24;;;;;;;2.83;2.63;;;39.70;38.00;;;45.70;13.52;101409.25;4972444;28;20751;-70
2022/08/09 08:11:12;;;;;;;2.63;2.53;;;40.00;37.60;;;46.34;13.63;101421.13;4972345;28;20658;-67
2022/08/09 08:13:59;;;;;;;3.03;2.50;;;40.20;37.60;;;47.05;13.14;101419.34;4972264;28;20600;-67
2022/08/09 08:16:26;;;;;;;2.50;2.40;;;40.60;37.30;;;47.13;13.07;101416.50;4971343;28;20639;-67
2022/08/09 08:18:58;;;;;;;2.63;2.53;;;41.00;37.00;;;48.05;12.35;101433.72;4971615;28;20939;-66
2022/08/09 08:21:29;;;;;;;2.87;2.67;;;41.20;36.90;;;47.94;12.13;101432.53;4972396;28;20626;-66
2022/08/09 08:23:56;;;;;;;2.67;2.47;;;41.40;36.50;;;47.71;12.29;101412.72;4971593;28;20703;-66
2022/08/09 08:26:27;;;;;;;4.30;2.30;;;41.60;36.30;;;48.40;12.09;101423.88;4971988;28;20683;-66
2022/08/09 08:29:16;;;;;;;3.13;2.50;;;41.90;36.40;;;48.81;11.66;101432.00;4971913;28;21241;-68
2022/08/09 08:31:53;;;;;;;3.00;2.90;;;41.80;36.20;;;49.31;11.30;101439.84;4971930;28;20970;-67
2022/08/09 08:34:32;;;;;;;2.73;2.63;;;42.00;36.00;;;49.63;11.37;101427.72;4955427;28;20643;-67
2022/08/09 08:37:02;;;;;;;2.30;2.20;;;42.10;35.90;;;50.03;11.04;101419.31;4970878;28;20667;-67
2022/08/09 08:39:29;;;;;;;2.50;2.20;;;42.30;35.80;;;49.74;10.80;101420.50;4954643;28;20617;-67
2022/08/09 08:42:10;;;;;;;2.20;2.10;;;42.20;35.70;;;51.10;10.73;101423.50;4970512;28;21309;-68
2022/08/09 08:44:37;;;;;;;2.70;2.60;;;43.10;35.60;;;51.89;10.27;101422.78;4970237;28;20635;-69
2022/08/09 08:47:05;;;;;;;2.70;2.60;;;43.80;36.00;;;52.58;9.34;101421.56;4970277;28;21015;-68
2022/08/09 08:49:39;;;;;;;2.50;2.50;;;44.20;34.90;;;52.19;9.85;101413.75;4970958;28;20639;-68
2022/08/09 08:52:17;;;;;;;2.70;2.60;;;44.00;34.80;;;51.77;9.65;101425.72;4970704;28;20631;-67
2022/08/09 08:55:04;;;;;;;2.50;2.40;;;44.00;34.80;;;53.09;9.30;101427.47;4957416;28;20638;-64
2022/08/09 08:57:32;;;;;;;2.50;2.40;;;44.90;34.60;;;52.63;9.74;101429.59;4970389;28;20658;-67
2022/08/09 09:00:04;;;;;;;2.60;2.40;;;44.60;35.30;;;53.00;9.09;101423.34;4971739;28;20627;-67
2022/08/09 09:02:51;;;;;;;2.80;2.60;;;45.00;34.40;;;53.62;9.01;101416.97;4970612;28;20677;-66
2022/08/09 09:05:24;;;;;;;2.57;2.47;;;45.50;34.30;;;53.07;9.00;101423.44;4954965;28;21249;-69
2022/08/09 09:08:13;;;;;;;4.30;2.40;;;45.50;33.90;;;53.52;8.95;101423.25;4972637;28;21232;-67
2022/08/09 09:11:03;;;;;;;4.30;2.50;;;45.50;34.00;;;54.81;8.24;101418.38;4966223;28;20623;-67
2022/08/09 09:13:37;;;;;;;2.60;2.30;;;46.40;33.80;;;56.09;7.33;101416.38;4965311;28;21066;-67
2022/08/09 09:16:31;;;;;;;2.50;2.30;;;47.40;33.50;;;56.72;7.26;101418.31;4968247;28;21317;-67
2022/08/09 09:19:07;;;;;;;3.00;2.77;;;47.80;33.10;;;54.89;7.89;101409.63;4970772;28;21008;-67
2022/08/09 09:22:20;;;;;;;2.47;2.10;;;47.40;32.60;;;56.13;7.81;101413.56;4971756;28;20651;-68
2022/08/09 09:24:59;;;;;;;2.97;2.77;;;47.90;32.80;;;55.89;8.38;101417.16;4970625;28;20989;-68
2022/08/09 09:27:55;;;;;;;2.80;2.60;;;47.80;32.70;;;56.37;8.03;101412.78;4969558;28;20662;-67
2022/08/09 09:30:35;;;;;;;2.43;2.33;;;48.00;33.50;;;57.39;6.81;101414.44;4971013;28;20615;-67
2022/08/09 09:33:11;;;;;;;2.57;2.47;;;48.50;32.70;;;57.98;7.24;101406.81;4949095;28;20640;-67
2022/08/09 09:35:56;;;;;;;2.77;2.67;;;49.00;32.50;;;58.65;7.03;101400.56;4966248;28;20967;-67
2022/08/09 09:38:49;;;;;;;2.90;2.80;;;49.70;32.10;;;58.85;6.71;101398.72;4954859;28;21013;-67
2022/08/09 09:41:22;;;;;;;2.80;2.60;;;49.90;31.90;;;58.69;6.95;101390.88;4970881;28;20400;-67
2022/08/09 09:43:49;;;;;;;2.80;2.43;;;50.10;31.80;;;56.55;7.38;101388.31;4970600;28;20255;-68
2022/08/09 09:46:39;;;;;;;4.97;2.70;;;48.80;31.50;;;56.38;7.25;101377.16;4950848;29;20212;-68
2022/08/09 09:49:18;;;;;;;2.97;2.30;;;48.90;31.60;;;56.77;6.80;101383.44;4953626;28;20687;-67
2022/08/09 09:52:09;;;;;;;2.80;2.70;;;48.40;32.00;;;57.89;6.59;101378.41;4970333;28;20204;-67
2022/08/09 09:55:08;;;;;;;9.13;2.70;;;49.10;31.80;;;57.22;7.04;101378.88;4972246;28;20207;-67
2022/08/09 09:58:03;;;;;;;2.83;2.30;;;48.90;32.30;;;57.95;6.48;101369.13;4973850;28;20727;-67
2022/08/09 10:00:56;;;;;;;2.40;2.30;;;49.40;31.40;;;58.48;6.25;101370.63;4959124;28;20211;-68
2022/08/09 10:03:46;;;;;;;2.63;2.43;;;49.70;31.30;;;58.44;6.66;101367.06;4957324;28;20227;-67
2022/08/09 10:06:25;;;;;;;2.20;2.20;;;49.90;31.30;;;58.23;6.37;101371.66;4973289;28;20298;-67
2022/08/09 10:09:01;;;;;;;2.87;2.67;;;49.50;31.40;;;57.89;6.02;101365.16;4974841;28;20719;-68
2022/08/09 10:11:38;;;;;;;2.40;2.40;;;49.40;31.20;;;57.91;6.70;101368.38;4972646;28;20207;-67
2022/08/09 10:14:27;;;;;;;2.83;2.63;;;49.30;31.50;;;57.85;6.99;101366.41;4963871;28;20220;-68
2022/08/09 10:17:12;;;;;;;3.07;2.87;;;49.30;31.40;;;57.29;7.25;101356.38;4974947;28;20231;-67
2022/08/09 10:20:22;;;;;;;2.90;2.80;;;49.10;31.50;;;56.32;6.44;101353.53;4959660;28;20204;-67
2022/08/09 10:23:17;;;;;;;2.70;2.50;;;48.60;31.50;;;52.53;9.14;101337.50;4958939;28;20719;-67
2022/08/09 10:25:49;;;;;;;2.10;2.10;;;47.00;31.70;;;51.35;9.73;101340.63;4974469;28;20619;-67
2022/08/09 10:28:39;;;;;;;3.90;2.70;;;45.80;32.40;;;48.14;11.36;101330.09;4957796;28;20718;-67
2022/08/09 10:31:09;;;;;;;2.50;2.40;;;43.90;33.00;;;46.57;12.68;101331.38;4956781;28;20622;-68
2022/08/09 10:33:57;;;;;;;2.30;2.20;;;42.90;33.60;;;44.74;13.61;101326.88;4974384;28;20623;-67
2022/08/09 10:36:44;;;;;;;2.20;2.20;;;41.70;34.00;;;42.44;15.54;101318.63;4966286;28;20611;-66
2022/08/09 10:39:12;;;;;;;2.50;2.40;;;40.30;34.80;;;41.02;16.50;101313.16;4974358;28;20631;-66
2022/08/09 10:41:44;;;;;;;2.60;2.50;;;39.40;35.50;;;40.03;17.62;101301.25;4974492;28;20614;-67
2022/08/09 10:44:18;;;;;;;2.90;2.70;;;38.60;36.20;;;39.11;18.27;101307.69;4966666;28;20638;-69
2022/08/09 10:47:28;;;;;;;2.80;2.70;;;37.60;36.90;;;38.37;18.63;101300.41;4973555;28;20622;-68
2022/08/09 10:51:05;;;;;;;3.20;2.50;;;37.00;36.80;;;37.65;19.22;101281.72;4939918;28;20616;-66
2022/08/09 10:53:38;;;;;;;2.43;2.33;;;36.20;37.40;;;37.19;19.35;101282.75;4939709;29;20624;-68
2022/08/09 10:56:23;;;;;;;2.73;2.53;;;35.60;38.00;;;36.56;20.08;101282.06;4944785;28;20638;-67
2022/08/09 10:58:54;;;;;;;2.17;2.07;;;35.10;38.30;;;36.26;21.12;101273.72;4974166;28;20659;-68